Time;durP1;ratioP1;P1;durP2;ratioP2;P2;SDS_P1;SDS_P2;PMS_P1;PMS_P2;Temp;Humidity;BMP_temperature;BMP_pressure;BME280_temperature;BME280_humidity;BME280_pressure;Samples;Min_cycle;Max_cycle;Signal;HPM_P1;HPM_P2
2023/10/18 00:01:00;;;;;;;5.20;4.60;;;7.70;16.70;;;;;;5068482;28;20220;-59
2023/10/18 00:03:31;;;;;;;7.87;4.93;;;7.70;25.80;;;;;;5066321;28;20212;-58
2023/10/18 00:06:11;;;;;;;11.23;5.43;;;7.60;23.60;;;;;;5064174;28;20223;-58
2023/10/18 00:08:39;;;;;;;8.37;4.80;;;7.70;14.40;;;;;;5069155;28;20215;-58
2023/10/18 00:11:08;;;;;;;5.93;4.93;;;7.60;29.80;;;;;;5065885;28;20223;-59
2023/10/18 00:13:37;;;;;;;5.47;4.97;;;7.60;25.20;;;;;;5062700;28;20184;-58
2023/10/18 00:16:06;;;;;;;8.30;4.87;;;7.60;30.50;;;;;;5065351;28;20195;-58
2023/10/18 00:18:36;;;;;;;5.77;5.10;;;7.60;33.60;;;;;;5068196;28;20220;-59
2023/10/18 00:21:07;;;;;;;6.37;4.87;;;7.60;29.70;;;;;;5064962;28;20232;-59
2023/10/18 00:23:35;;;;;;;5.37;4.87;;;7.60;33.80;;;;;;5063138;28;20223;-59
2023/10/18 00:26:07;;;;;;;10.40;4.97;;;7.60;28.80;;;;;;5063509;28;20713;-58
2023/10/18 00:28:37;;;;;;;8.40;5.47;;;7.50;23.50;;;;;;5065848;28;20616;-59
2023/10/18 00:31:16;;;;;;;10.80;6.40;;;7.50;41.80;;;;;;5058695;28;20197;-59
2023/10/18 00:33:46;;;;;;;12.93;6.90;;;7.50;33.90;;;;;;5060147;28;20212;-59
2023/10/18 00:36:16;;;;;;;16.30;7.87;;;7.50;36.10;;;;;;5062742;28;20354;-59
2023/10/18 00:38:45;;;;;;;13.23;8.43;;;7.50;43.40;;;;;;5060684;28;20304;-59
2023/10/18 00:41:16;;;;;;;20.63;10.57;;;7.50;46.20;;;;;;5063052;28;20261;-59
2023/10/18 00:43:45;;;;;;;21.47;10.80;;;7.40;36.80;;;;;;5066022;28;20269;-59
2023/10/18 00:46:15;;;;;;;22.33;12.33;;;7.40;47.10;;;;;;5066176;28;20206;-59
2023/10/18 00:48:45;;;;;;;28.50;14.23;;;7.40;40.00;;;;;;5061790;28;20281;-58
2023/10/18 00:51:17;;;;;;;27.47;13.93;;;7.40;41.80;;;;;;5066666;28;20243;-59
2023/10/18 00:53:47;;;;;;;23.03;11.73;;;7.40;34.90;;;;;;5063328;28;20318;-58
2023/10/18 00:56:16;;;;;;;20.80;10.93;;;7.30;38.90;;;;;;5067194;28;20928;-58
2023/10/18 00:58:46;;;;;;;17.10;10.13;;;7.40;50.40;;;;;;5068712;28;20635;-58
2023/10/18 01:01:17;;;;;;;15.27;9.20;;;7.30;36.80;;;;;;5068830;28;20199;-58
2023/10/18 01:03:49;;;;;;;12.23;7.73;;;7.40;49.60;;;;;;5067668;28;20220;-58
2023/10/18 01:06:24;;;;;;;9.97;7.30;;;7.30;37.90;;;;;;5064122;28;20208;-59
2023/10/18 01:08:53;;;;;;;9.83;6.27;;;7.30;38.90;;;;;;5070096;28;20231;-59
2023/10/18 01:11:27;;;;;;;9.67;6.37;;;7.30;43.90;;;;;;5072752;28;20562;-59
2023/10/18 01:13:57;;;;;;;7.50;5.97;;;7.40;45.60;;;;;;5069270;28;20223;-58
2023/10/18 01:16:28;;;;;;;8.57;5.93;;;7.30;35.00;;;;;;5067792;28;20219;-59
2023/10/18 01:18:56;;;;;;;7.33;5.77;;;7.30;47.30;;;;;;5067815;28;20199;-59
2023/10/18 01:21:26;;;;;;;8.50;6.23;;;7.30;46.70;;;;;;5070848;28;20459;-59
2023/10/18 01:23:56;;;;;;;6.80;5.10;;;7.30;41.50;;;;;;5068014;28;20220;-59
2023/10/18 01:26:27;;;;;;;9.53;5.47;;;7.30;42.00;;;;;;5069312;28;20216;-59
2023/10/18 01:28:57;;;;;;;7.57;5.23;;;7.40;45.00;;;;;;5066682;28;20683;-59
2023/10/18 01:31:25;;;;;;;7.33;4.87;;;7.40;42.10;;;;;;5064357;28;20184;-58
2023/10/18 01:33:53;;;;;;;8.03;5.27;;;7.40;41.00;;;;;;5070262;28;20239;-59
2023/10/18 01:36:30;;;;;;;9.90;6.03;;;7.40;47.00;;;;;;5070839;28;20656;-58
2023/10/18 01:39:00;;;;;;;6.13;4.87;;;7.40;39.80;;;;;;5070685;28;20285;-59
2023/10/18 01:41:29;;;;;;;10.93;5.50;;;7.40;45.60;;;;;;5070981;28;20215;-58
2023/10/18 01:44:05;;;;;;;6.00;5.40;;;7.40;44.50;;;;;;5073339;28;20273;-59
2023/10/18 01:46:34;;;;;;;6.40;5.30;;;7.40;39.30;;;;;;5071357;28;20200;-59
2023/10/18 01:49:04;;;;;;;7.97;4.87;;;7.40;35.50;;;;;;5071211;28;20199;-59
2023/10/18 01:51:33;;;;;;;7.27;5.20;;;7.40;47.20;;;;;;5065386;28;20219;-59
2023/10/18 01:54:05;;;;;;;6.37;5.13;;;7.40;48.10;;;;;;5068120;28;20587;-59
2023/10/18 01:56:35;;;;;;;5.60;4.97;;;7.40;45.60;;;;;;5066927;28;20251;-59
2023/10/18 01:59:14;;;;;;;5.60;4.80;;;7.40;38.40;;;;;;5066622;28;20307;-59
2023/10/18 02:01:44;;;;;;;6.17;5.13;;;7.50;47.30;;;;;;5063434;28;20307;-59
2023/10/18 02:04:23;;;;;;;5.90;5.30;;;7.40;42.10;;;;;;5066382;28;20216;-59
2023/10/18 02:07:17;;;;;;;5.73;5.10;;;7.50;40.00;;;;;;5071494;28;20223;-59
2023/10/18 02:09:48;;;;;;;5.27;4.77;;;7.50;39.00;;;;;;5066680;28;20222;-59
2023/10/18 02:12:20;;;;;;;5.97;5.10;;;7.50;40.30;;;;;;5069091;28;20607;-59
2023/10/18 02:14:50;;;;;;;5.80;5.20;;;7.50;51.90;;;;;;5067303;28;20236;-59
2023/10/18 02:17:19;;;;;;;8.63;4.97;;;7.50;28.70;;;;;;5072044;28;20713;-60
2023/10/18 02:19:48;;;;;;;5.60;5.00;;;7.50;35.10;;;;;;5066560;28;20725;-59
2023/10/18 02:22:18;;;;;;;7.10;4.93;;;7.50;44.30;;;;;;5065511;28;20706;-60
2023/10/18 02:24:49;;;;;;;5.77;5.00;;;7.50;38.30;;;;;;5066887;28;20220;-60
2023/10/18 02:27:23;;;;;;;8.33;5.10;;;7.60;41.20;;;;;;5064526;28;20216;-59
2023/10/18 02:29:52;;;;;;;8.07;5.40;;;7.60;38.20;;;;;;5069788;28;20232;-59
2023/10/18 02:32:32;;;;;;;6.23;4.93;;;7.50;28.30;;;;;;5064847;28;20268;-60
2023/10/18 02:35:04;;;;;;;8.43;5.20;;;7.60;42.40;;;;;;5059668;28;20274;-59
2023/10/18 02:37:33;;;;;;;5.87;5.33;;;7.50;32.20;;;;;;5065658;28;20211;-59
2023/10/18 02:40:08;;;;;;;9.23;5.60;;;7.50;28.00;;;;;;5066742;28;20196;-59
2023/10/18 02:42:39;;;;;;;6.60;5.00;;;7.40;28.60;;;;;;5066006;28;20236;-59
2023/10/18 02:45:17;;;;;;;7.87;5.40;;;7.40;37.60;;;;;;5065708;28;20578;-59
2023/10/18 02:47:45;;;;;;;6.27;5.00;;;7.40;31.30;;;;;;5065138;28;20270;-59
2023/10/18 02:50:14;;;;;;;6.80;5.10;;;7.40;34.30;;;;;;5069445;28;20766;-58
2023/10/18 02:52:45;;;;;;;7.87;5.67;;;7.40;35.70;;;;;;5067666;28;20306;-58
2023/10/18 02:55:17;;;;;;;7.77;5.23;;;7.40;45.60;;;;;;5069434;28;20204;-59
2023/10/18 02:57:47;;;;;;;5.70;5.10;;;7.40;36.00;;;;;;5063061;28;20608;-59
2023/10/18 03:00:17;;;;;;;7.20;5.23;;;7.40;38.40;;;;;;5071063;28;20219;-59
2023/10/18 03:02:46;;;;;;;5.90;5.30;;;7.40;37.60;;;;;;5069845;28;20224;-58
2023/10/18 03:05:18;;;;;;;5.73;5.03;;;7.40;36.30;;;;;;5067310;28;20219;-59
2023/10/18 03:07:47;;;;;;;5.77;5.27;;;7.40;37.10;;;;;;5067491;28;21497;-59
2023/10/18 03:10:25;;;;;;;5.77;5.13;;;7.40;38.50;;;;;;5078574;28;20196;-59
2023/10/18 03:12:55;;;;;;;8.03;5.27;;;7.30;41.50;;;;;;5062999;28;20207;-59
2023/10/18 03:15:26;;;;;;;5.93;5.07;;;7.30;45.40;;;;;;5066478;28;20285;-59
2023/10/18 03:17:56;;;;;;;7.80;5.53;;;7.30;44.10;;;;;;5064916;28;20267;-60
2023/10/18 03:20:24;;;;;;;5.80;5.27;;;7.40;50.80;;;;;;5061362;28;20686;-59
2023/10/18 03:22:54;;;;;;;11.50;5.50;;;7.40;44.80;;;;;;5066842;28;20247;-59
2023/10/18 03:25:27;;;;;;;6.93;5.23;;;7.40;57.20;;;;;;5064591;28;20227;-58
2023/10/18 03:28:00;;;;;;;8.30;5.30;;;7.40;45.10;;;;;;5063651;28;20990;-58
2023/10/18 03:30:44;;;;;;;6.47;4.97;;;7.30;41.80;;;;;;5068977;28;20235;-58
2023/10/18 03:33:14;;;;;;;7.30;5.50;;;7.30;53.50;;;;;;5057335;28;20219;-58
2023/10/18 03:35:46;;;;;;;8.53;5.27;;;7.30;52.10;;;;;;5065193;28;20216;-59
2023/10/18 03:38:17;;;;;;;6.77;5.57;;;7.30;60.40;;;;;;5068168;28;20228;-59
2023/10/18 03:40:49;;;;;;;5.83;5.03;;;7.30;48.10;;;;;;5062955;28;20235;-59
2023/10/18 03:43:26;;;;;;;5.93;5.33;;;7.30;65.90;;;;;;5065197;28;20196;-59
2023/10/18 03:46:10;;;;;;;6.57;5.13;;;7.40;58.40;;;;;;5067151;28;20295;-59
2023/10/18 03:48:45;;;;;;;6.23;5.30;;;7.30;58.80;;;;;;5063253;28;20321;-59
2023/10/18 03:51:18;;;;;;;9.20;5.87;;;7.30;56.10;;;;;;5065214;28;20659;-59
2023/10/18 03:53:52;;;;;;;6.63;5.40;;;7.30;57.80;;;;;;5068953;28;20223;-59
2023/10/18 03:56:22;;;;;;;6.77;5.00;;;7.40;60.50;;;;;;5065739;28;20223;-59
2023/10/18 03:59:00;;;;;;;7.90;5.63;;;7.30;60.10;;;;;;5069465;28;20227;-59
2023/10/18 04:01:40;;;;;;;7.03;5.43;;;7.30;60.60;;;;;;5059901;28;20192;-59
2023/10/18 04:04:17;;;;;;;6.47;5.47;;;7.30;61.50;;;;;;5069522;28;20220;-58
2023/10/18 04:06:49;;;;;;;6.23;5.50;;;7.30;60.20;;;;;;5065542;28;20298;-59
2023/10/18 04:09:18;;;;;;;5.90;5.30;;;7.20;58.50;;;;;;5061255;28;20227;-59
2023/10/18 04:11:47;;;;;;;5.70;5.10;;;7.20;60.80;;;;;;5068321;28;20216;-59
2023/10/18 04:14:20;;;;;;;9.60;5.67;;;7.20;60.10;;;;;;5068071;28;20219;-59
2023/10/18 04:16:54;;;;;;;6.90;5.03;;;7.20;60.90;;;;;;5066959;28;20231;-59
2023/10/18 04:19:22;;;;;;;6.57;5.60;;;7.20;59.30;;;;;;5067723;28;20218;-58
2023/10/18 04:21:54;;;;;;;6.20;5.60;;;7.20;63.70;;;;;;5058449;28;20228;-59
2023/10/18 04:24:25;;;;;;;5.53;4.80;;;7.20;69.20;;;;;;5067758;28;20760;-58
2023/10/18 04:26:56;;;;;;;5.97;5.10;;;7.10;60.00;;;;;;5063747;28;20597;-59
2023/10/18 04:29:32;;;;;;;8.83;5.27;;;7.20;56.40;;;;;;5071669;28;20257;-59
2023/10/18 04:32:03;;;;;;;6.33;5.20;;;7.20;67.30;;;;;;5067818;28;20752;-59
2023/10/18 04:34:33;;;;;;;11.17;5.60;;;7.20;66.90;;;;;;5073711;28;20546;-59
2023/10/18 04:37:05;;;;;;;6.13;5.00;;;7.20;65.00;;;;;;5074816;28;20197;-59
2023/10/18 04:39:34;;;;;;;6.93;5.47;;;7.20;57.30;;;;;;5076124;28;20302;-59
2023/10/18 04:42:06;;;;;;;5.23;4.73;;;7.10;58.40;;;;;;5068037;28;20681;-59
2023/10/18 04:44:36;;;;;;;5.30;4.80;;;7.10;59.40;;;;;;5073744;28;20212;-58
2023/10/18 04:47:04;;;;;;;5.20;4.77;;;7.10;59.60;;;;;;5072974;28;20219;-59
2023/10/18 04:49:39;;;;;;;7.73;5.03;;;7.10;62.80;;;;;;5069888;28;20187;-58
2023/10/18 04:52:08;;;;;;;7.33;5.80;;;7.10;61.70;;;;;;5073534;28;20191;-59
2023/10/18 04:54:38;;;;;;;6.73;5.53;;;7.10;69.20;;;;;;5070865;28;20341;-59
2023/10/18 04:57:10;;;;;;;7.27;5.53;;;7.10;65.50;;;;;;5068911;28;20318;-58
2023/10/18 04:59:46;;;;;;;6.37;5.30;;;7.10;70.70;;;;;;5068393;28;20547;-59
2023/10/18 05:02:17;;;;;;;5.33;4.83;;;7.10;65.50;;;;;;5073959;28;20226;-59
2023/10/18 05:04:46;;;;;;;6.47;4.83;;;7.20;66.90;;;;;;5063464;28;20232;-58
2023/10/18 05:07:14;;;;;;;9.23;4.73;;;7.20;60.00;;;;;;5071931;28;20195;-59
2023/10/18 05:09:44;;;;;;;5.57;5.07;;;7.20;62.80;;;;;;5071538;28;20203;-59
2023/10/18 05:12:27;;;;;;;5.43;4.93;;;7.20;65.30;;;;;;5069875;28;20220;-58
2023/10/18 05:15:16;;;;;;;8.67;5.37;;;7.20;67.30;;;;;;5072595;28;20277;-59
2023/10/18 05:17:47;;;;;;;6.97;5.00;;;7.20;57.50;;;;;;5067745;28;20266;-59
2023/10/18 05:20:24;;;;;;;5.50;4.97;;;7.20;59.80;;;;;;5072761;28;20278;-60
2023/10/18 05:22:58;;;;;;;10.43;5.10;;;7.20;62.70;;;;;;5071202;28;20254;-59
2023/10/18 05:25:35;;;;;;;5.30;4.50;;;7.20;59.90;;;;;;5070453;28;20325;-58
2023/10/18 05:28:13;;;;;;;7.57;4.90;;;7.20;57.70;;;;;;5070372;28;20250;-59
2023/10/18 05:39:05;;;;;;;5.50;4.60;;;7.30;59.10;;;;;;5071372;28;20325;-59
2023/10/18 05:41:45;;;;;;;6.10;5.10;;;7.40;69.10;;;;;;5067018;28;20219;-58
2023/10/18 05:44:13;;;;;;;6.00;4.80;;;7.40;61.40;;;;;;5066876;28;20577;-58
2023/10/18 05:46:44;;;;;;;7.37;5.10;;;7.40;47.10;;;;;;5065152;28;20220;-59
2023/10/18 05:49:23;;;;;;;6.27;4.47;;;7.40;42.80;;;;;;5063369;28;20527;-59
2023/10/18 05:51:59;;;;;;;5.23;4.80;;;7.40;54.00;;;;;;5064207;28;20317;-59
2023/10/18 05:54:28;;;;;;;5.20;4.70;;;7.40;50.50;;;;;;5069248;28;20218;-59
2023/10/18 05:56:57;;;;;;;5.13;4.63;;;7.40;51.10;;;;;;5070894;28;20314;-59
2023/10/18 05:59:33;;;;;;;10.20;4.80;;;7.30;47.10;;;;;;5067202;28;20278;-58
2023/10/18 06:02:09;;;;;;;5.00;4.60;;;7.30;47.10;;;;;;5067675;28;20302;-59
2023/10/18 06:04:42;;;;;;;7.43;5.13;;;7.30;49.50;;;;;;5066163;28;20208;-59
2023/10/18 06:07:12;;;;;;;5.20;4.60;;;7.30;59.50;;;;;;5068324;28;20219;-58
2023/10/18 06:09:50;;;;;;;6.63;4.70;;;7.30;56.10;;;;;;5070925;28;20266;-58
2023/10/18 06:12:24;;;;;;;5.00;4.60;;;7.20;60.00;;;;;;5067213;28;20224;-58
2023/10/18 06:14:57;;;;;;;5.30;4.80;;;7.20;55.40;;;;;;5072933;28;20566;-59
2023/10/18 06:17:46;;;;;;;10.47;5.00;;;7.20;65.70;;;;;;5063536;28;20226;-58
2023/10/18 06:20:23;;;;;;;7.73;4.97;;;7.20;63.90;;;;;;5063630;28;20223;-58
2023/10/18 06:22:53;;;;;;;5.23;4.67;;;7.20;61.00;;;;;;5067646;28;20226;-58
2023/10/18 06:25:26;;;;;;;4.33;3.93;;;7.20;60.80;;;;;;5062561;28;20728;-58
2023/10/18 06:27:54;;;;;;;5.43;4.40;;;7.20;62.00;;;;;;5064927;28;20228;-59
2023/10/18 06:30:24;;;;;;;9.27;5.30;;;7.30;63.20;;;;;;5070598;28;20226;-59
2023/10/18 06:32:55;;;;;;;6.93;4.57;;;7.30;59.00;;;;;;5067137;28;20566;-58
2023/10/18 06:35:27;;;;;;;8.03;5.00;;;7.30;56.20;;;;;;5060315;28;20286;-58
2023/10/18 06:37:55;;;;;;;5.27;4.77;;;7.30;57.60;;;;;;5063597;28;20256;-59
2023/10/18 06:40:40;;;;;;;5.30;4.80;;;7.40;53.70;;;;;;5066961;28;20698;-58
2023/10/18 06:43:25;;;;;;;6.47;5.10;;;7.40;45.90;;;;;;5063950;28;20192;-58
2023/10/18 06:45:54;;;;;;;6.87;5.03;;;7.50;48.20;;;;;;5064045;28;20666;-58
2023/10/18 06:48:26;;;;;;;5.23;4.70;;;7.50;39.20;;;;;;5069802;28;20327;-58
2023/10/18 06:50:57;;;;;;;5.13;4.73;;;7.60;35.70;;;;;;5061723;28;20228;-58
2023/10/18 06:53:26;;;;;;;6.73;4.80;;;7.70;36.10;;;;;;5067091;28;20211;-59
2023/10/18 06:55:57;;;;;;;6.10;4.73;;;7.70;37.80;;;;;;5065490;28;20220;-59
2023/10/18 06:58:42;;;;;;;5.93;5.23;;;7.80;28.70;;;;;;5061334;28;20230;-58
2023/10/18 07:01:19;;;;;;;8.53;5.03;;;7.80;21.10;;;;;;5065484;28;20180;-59
2023/10/18 07:03:50;;;;;;;9.93;5.10;;;7.90;20.20;;;;;;5058536;28;20231;-58
2023/10/18 07:06:23;;;;;;;5.27;4.63;;;7.90;17.20;;;;;;5064260;28;20224;-58
2023/10/18 07:08:53;;;;;;;5.23;4.77;;;8.00;12.50;;;;;;5062051;28;20306;-59
2023/10/18 07:11:23;;;;;;;9.80;5.13;;;8.10;5.80;;;;;;5064604;28;20231;-59
2023/10/18 07:14:12;;;;;;;9.37;5.20;;;8.20;7.40;;;;;;5062041;28;20243;-59
2023/10/18 07:16:42;;;;;;;8.90;5.40;;;8.20;1.00;;;;;;5063404;28;20221;-58
2023/10/18 07:19:29;;;;;;;6.40;5.33;;;8.30;1.00;;;;;;5062359;28;20214;-59
2023/10/18 07:21:58;;;;;;;5.50;4.70;;;8.40;1.00;;;;;;5056565;28;20236;-59
2023/10/18 07:24:34;;;;;;;5.47;4.97;;;8.50;2.90;;;;;;5055305;28;20320;-59
2023/10/18 07:27:04;;;;;;;5.87;4.50;;;8.60;1.00;;;;;;5058642;28;20230;-58
2023/10/18 07:29:36;;;;;;;5.70;4.57;;;8.60;1.00;;;;;;5061868;28;20212;-58
2023/10/18 07:32:12;;;;;;;5.97;5.03;;;8.70;1.00;;;;;;5058645;28;20220;-59
2023/10/18 07:34:43;;;;;;;7.83;4.80;;;8.70;1.00;;;;;;5064808;28;20230;-58
2023/10/18 07:37:19;;;;;;;8.07;5.00;;;8.70;1.00;;;;;;5061258;28;20184;-59
2023/10/18 07:39:56;;;;;;;7.87;4.77;;;8.80;1.00;;;;;;5063691;28;20786;-59
2023/10/18 07:42:26;;;;;;;5.77;4.80;;;8.80;1.00;;;;;;5063863;28;20220;-58
2023/10/18 07:45:03;;;;;;;6.10;5.00;;;8.80;1.00;;;;;;5063451;28;20248;-60
2023/10/18 07:47:32;;;;;;;6.13;5.07;;;8.90;1.00;;;;;;5064395;28;20235;-59
2023/10/18 07:50:30;;;;;;;6.57;5.37;;;9.10;1.00;;;;;;5065561;28;20251;-59
2023/10/18 07:52:54;;;;;;;7.87;4.73;;;9.20;1.00;;;;;;5065713;28;20232;-59
2023/10/18 07:55:23;;;;;;;5.13;4.70;;;9.30;1.00;;;;;;5068395;28;20597;-59
2023/10/18 07:57:54;;;;;;;8.33;4.83;;;9.50;1.00;;;;;;5064785;28;20202;-59
2023/10/18 08:00:26;;;;;;;7.63;5.17;;;9.50;1.00;;;;;;5062245;28;20236;-59
2023/10/18 08:02:56;;;;;;;6.97;4.90;;;9.60;1.00;;;;;;5059926;28;20212;-59
2023/10/18 08:05:31;;;;;;;5.37;4.87;;;9.70;1.00;;;;;;5057712;28;20319;-59
2023/10/18 08:08:08;;;;;;;4.93;4.50;;;9.70;1.00;;;;;;5060421;28;20231;-58
2023/10/18 08:10:38;;;;;;;7.23;4.80;;;9.70;1.00;;;;;;5061923;28;20202;-59
2023/10/18 08:13:07;;;;;;;7.83;4.67;;;9.70;1.00;;;;;;5067389;28;21153;-59
2023/10/18 08:15:36;;;;;;;6.70;4.97;;;9.80;1.00;;;;;;5063436;28;20945;-59
2023/10/18 08:18:14;;;;;;;5.57;4.93;;;9.90;1.00;;;;;;5060189;28;20219;-59
2023/10/18 08:21:06;;;;;;;7.63;5.03;;;10.00;1.00;;;;;;5066682;28;20318;-59
2023/10/18 08:23:39;;;;;;;8.80;4.67;;;10.10;1.00;;;;;;5060389;28;20302;-58
2023/10/18 08:26:07;;;;;;;4.37;4.07;;;10.10;1.00;;;;;;5066343;28;20253;-60
2023/10/18 08:28:40;;;;;;;4.83;4.20;;;10.10;1.00;;;;;;5064014;28;20192;-58
2023/10/18 08:31:26;;;;;;;5.20;4.80;;;10.20;1.00;;;;;;5057757;28;20202;-59
2023/10/18 08:33:56;;;;;;;8.93;4.73;;;10.30;1.00;;;;;;5061802;28;20216;-59
2023/10/18 08:36:32;;;;;;;6.53;4.50;;;10.30;1.00;;;;;;5062813;28;20224;-59
2023/10/18 08:39:01;;;;;;;5.20;4.70;;;10.50;1.00;;;;;;5066837;28;20226;-58
2023/10/18 08:41:33;;;;;;;7.43;4.70;;;10.50;1.00;;;;;;5060274;28;20220;-59
2023/10/18 08:44:15;;;;;;;6.07;4.63;;;10.60;1.00;;;;;;5067670;28;20730;-58
2023/10/18 08:46:52;;;;;;;5.33;4.40;;;10.80;1.00;;;;;;5062417;28;20282;-59
2023/10/18 08:49:25;;;;;;;6.70;4.80;;;11.00;1.00;;;;;;5066189;28;20184;-58
2023/10/18 08:52:04;;;;;;;6.67;4.20;;;11.20;1.00;;;;;;5066458;28;20273;-58
2023/10/18 08:54:34;;;;;;;7.00;4.57;;;11.30;1.00;;;;;;5062580;28;20294;-59
2023/10/18 08:57:07;;;;;;;9.33;4.80;;;11.50;1.00;;;;;;5067073;28;20220;-59
2023/10/18 08:59:42;;;;;;;7.70;4.70;;;11.70;1.00;;;;;;5064737;28;20318;-59
2023/10/18 09:02:12;;;;;;;8.57;5.00;;;11.90;1.00;;;;;;5065814;28;20226;-59
2023/10/18 09:04:44;;;;;;;8.53;4.93;;;12.00;1.00;;;;;;5061984;28;20236;-58
2023/10/18 09:07:42;;;;;;;8.07;4.50;;;12.20;1.00;;;;;;5061214;28;20273;-59
2023/10/18 09:10:13;;;;;;;8.53;4.33;;;12.30;1.00;;;;;;5066563;28;20212;-59
2023/10/18 09:15:28;;;;;;;4.70;4.30;;;12.50;1.00;;;;;;5067261;28;20307;-59
2023/10/18 09:17:57;;;;;;;8.47;4.47;;;12.60;1.00;;;;;;5063248;28;20220;-59
2023/10/18 09:20:26;;;;;;;7.37;4.80;;;12.60;1.00;;;;;;5062997;28;20278;-58
2023/10/18 09:23:01;;;;;;;10.50;4.67;;;12.80;1.00;;;;;;5066358;28;20228;-58
2023/10/18 09:25:47;;;;;;;8.67;4.37;;;12.80;1.00;;;;;;5065488;28;20216;-59
2023/10/18 09:28:20;;;;;;;4.53;4.13;;;12.90;1.00;;;;;;5068031;28;20284;-58
2023/10/18 09:30:49;;;;;;;8.50;4.27;;;13.10;1.00;;;;;;5065745;28;20208;-59
2023/10/18 09:33:17;;;;;;;4.70;4.30;;;13.20;99.90;;;;;;5067810;28;20757;-59
2023/10/18 09:35:49;;;;;;;6.00;4.27;;;13.30;99.90;;;;;;5068635;28;20239;-58
2023/10/18 09:38:21;;;;;;;5.67;4.57;;;13.40;99.90;;;;;;5066144;28;20239;-58
2023/10/18 09:40:49;;;;;;;10.67;4.57;;;13.60;99.90;;;;;;5066259;28;20245;-58
2023/10/18 09:43:17;;;;;;;5.50;4.20;;;13.80;99.90;;;;;;5067249;28;20555;-59
2023/10/18 09:45:45;;;;;;;6.20;4.27;;;14.00;99.90;;;;;;5065759;28;20659;-59
2023/10/18 09:48:15;;;;;;;4.53;4.13;;;14.00;99.90;;;;;;5066820;28;20548;-59
2023/10/18 09:50:47;;;;;;;4.53;4.13;;;14.00;99.90;;;;;;5069471;28;20750;-59
2023/10/18 09:53:22;;;;;;;6.63;4.50;;;14.10;99.90;;;;;;5066797;28;20582;-59
2023/10/18 09:55:52;;;;;;;7.23;4.53;;;14.20;99.90;;;;;;5067359;28;20315;-59
2023/10/18 09:58:24;;;;;;;4.13;3.83;;;14.30;99.90;;;;;;5068361;28;20513;-58
2023/10/18 10:00:56;;;;;;;9.43;4.13;;;14.40;99.90;;;;;;5065648;28;20204;-59
2023/10/18 10:03:27;;;;;;;4.23;3.87;;;14.50;99.90;;;;;;5061890;28;20852;-58
2023/10/18 10:05:57;;;;;;;5.20;3.90;;;14.60;99.90;;;;;;5063965;28;20220;-59
2023/10/18 10:08:31;;;;;;;4.30;3.90;;;14.70;99.90;;;;;;5062968;28;20222;-59
2023/10/18 10:11:13;;;;;;;9.57;4.40;;;14.70;99.90;;;;;;5063486;28;20826;-59
2023/10/18 10:13:45;;;;;;;7.43;4.17;;;14.70;99.90;;;;;;5066734;28;20224;-58
2023/10/18 10:16:14;;;;;;;5.33;3.63;;;14.80;99.90;;;;;;5066677;28;20188;-59
2023/10/18 10:18:47;;;;;;;8.37;4.07;;;14.90;99.90;;;;;;5060534;28;20214;-58
2023/10/18 10:21:21;;;;;;;6.80;3.93;;;15.00;99.90;;;;;;5063193;28;20244;-58
2023/10/18 10:23:55;;;;;;;4.17;3.77;;;15.10;90.10;;;;;;5068909;28;20266;-60
2023/10/18 10:26:28;;;;;;;7.37;3.83;;;15.10;99.90;;;;;;5063003;28;20358;-59
2023/10/18 10:32:04;;;;;;;10.13;3.80;;;15.30;13.80;;;;;;5069793;28;20278;-58
2023/10/18 10:34:41;;;;;;;7.27;4.00;;;15.30;1.00;;;;;;5070527;28;20599;-59
2023/10/18 10:37:11;;;;;;;4.27;3.70;;;15.40;12.50;;;;;;5062187;28;20280;-59
2023/10/18 10:39:49;;;;;;;6.43;4.00;;;15.50;46.80;;;;;;5064297;28;20244;-59
2023/10/18 10:42:41;;;;;;;8.50;4.47;;;15.50;99.90;;;;;;5063528;28;20215;-59
2023/10/18 10:45:23;;;;;;;8.00;4.00;;;15.70;9.50;;;;;;5067704;28;20249;-59
2023/10/18 10:47:52;;;;;;;4.60;3.70;;;15.90;25.00;;;;;;5065377;28;20224;-58
2023/10/18 10:50:42;;;;;;;5.30;3.60;;;16.20;99.90;;;;;;5066900;28;20322;-58
2023/10/18 10:53:11;;;;;;;6.37;3.47;;;16.40;1.00;;;;;;5062110;28;20241;-59
2023/10/18 10:55:40;;;;;;;5.17;3.43;;;16.50;1.00;;;;;;5067929;28;20286;-59
2023/10/18 10:58:16;;;;;;;8.20;3.80;;;16.60;1.00;;;;;;5066430;28;20198;-59
2023/10/18 11:01:02;;;;;;;7.03;3.53;;;16.90;1.00;;;;;;5062903;28;20261;-59
2023/10/18 11:03:33;;;;;;;4.80;3.50;;;17.10;1.00;;;;;;5066718;28;20208;-59
2023/10/18 11:06:12;;;;;;;5.57;3.17;;;17.00;1.00;;;;;;5060317;28;20219;-59
2023/10/18 11:08:40;;;;;;;5.27;3.57;;;16.90;1.00;;;;;;5058155;28;20231;-59
2023/10/18 11:11:11;;;;;;;6.83;3.40;;;16.60;1.00;;;;;;5065591;28;20227;-58
2023/10/18 11:13:41;;;;;;;4.13;3.57;;;16.60;1.00;;;;;;5064284;28;20204;-59
2023/10/18 11:16:12;;;;;;;4.30;3.37;;;16.60;99.90;;;;;;5065858;28;20207;-59
2023/10/18 11:18:42;;;;;;;5.87;3.23;;;16.70;1.00;;;;;;5062591;28;20216;-59
2023/10/18 11:21:21;;;;;;;7.30;3.13;;;16.90;1.00;;;;;;5066085;28;20262;-59
2023/10/18 11:23:57;;;;;;;6.33;3.07;;;16.90;1.00;;;;;;5058174;28;20210;-59
2023/10/18 11:26:27;;;;;;;5.53;3.27;;;17.00;1.00;;;;;;5067563;28;20610;-59
2023/10/18 11:28:58;;;;;;;8.07;3.50;;;17.00;1.00;;;;;;5061739;28;20751;-59
2023/10/18 11:31:27;;;;;;;6.90;3.47;;;16.90;1.00;;;;;;5068126;28;20663;-59
2023/10/18 11:33:59;;;;;;;3.70;3.30;;;16.80;1.00;;;;;;5064105;28;21013;-60
2023/10/18 11:36:28;;;;;;;3.47;3.17;;;16.90;1.00;;;;;;5065860;28;20303;-59
2023/10/18 11:39:18;;;;;;;7.50;3.50;;;17.00;1.00;;;;;;5062531;28;20219;-60
2023/10/18 11:41:56;;;;;;;6.83;3.40;;;17.10;1.00;;;;;;5063459;28;20215;-59
2023/10/18 11:44:30;;;;;;;5.47;3.20;;;17.30;1.00;;;;;;5065413;28;20220;-59
2023/10/18 11:47:11;;;;;;;3.90;3.20;;;17.40;1.00;;;;;;5062186;28;20216;-59
2023/10/18 11:49:42;;;;;;;3.30;3.00;;;17.50;1.00;;;;;;5063580;28;20285;-58
2023/10/18 11:52:16;;;;;;;3.53;3.23;;;17.50;1.00;;;;;;5059519;28;20698;-59
2023/10/18 11:54:47;;;;;;;3.53;2.83;;;17.50;1.00;;;;;;5063022;28;20222;-58
2023/10/18 11:57:29;;;;;;;6.40;3.40;;;17.60;1.00;;;;;;5059690;28;20224;-59
2023/10/18 12:00:20;;;;;;;6.87;3.17;;;17.60;1.00;;;;;;5059644;28;20243;-58
2023/10/18 12:02:48;;;;;;;7.33;2.83;;;17.60;1.00;;;;;;5058625;28;20575;-59
2023/10/18 12:05:17;;;;;;;3.37;3.07;;;17.60;1.00;;;;;;5059036;28;20243;-59
2023/10/18 12:07:49;;;;;;;8.27;2.90;;;17.60;1.00;;;;;;5057366;28;20224;-59
2023/10/18 12:10:25;;;;;;;6.07;3.17;;;17.60;1.00;;;;;;5058068;28;20192;-58
2023/10/18 12:12:59;;;;;;;4.27;2.90;;;17.60;1.00;;;;;;5060104;28;20296;-60
2023/10/18 12:15:30;;;;;;;4.23;3.00;;;17.60;1.00;;;;;;5061356;28;20246;-59
2023/10/18 12:18:01;;;;;;;3.13;2.83;;;17.60;1.00;;;;;;5060309;28;20220;-59
2023/10/18 12:20:43;;;;;;;6.90;3.23;;;17.70;1.00;;;;;;5062734;28;20228;-59
2023/10/18 12:23:13;;;;;;;3.37;3.07;;;17.70;1.00;;;;;;5057688;28;20298;-59
2023/10/18 12:25:44;;;;;;;6.13;3.63;;;17.70;1.00;;;;;;5062420;28;20315;-58
2023/10/18 12:28:15;;;;;;;6.53;2.87;;;17.70;1.00;;;;;;5062893;28;20203;-59
2023/10/18 12:30:47;;;;;;;4.00;2.87;;;17.80;1.00;;;;;;5059961;28;20216;-59
2023/10/18 12:33:23;;;;;;;5.47;2.93;;;17.90;23.80;;;;;;5059803;28;20246;-59
2023/10/18 12:35:56;;;;;;;6.97;2.90;;;18.00;1.00;;;;;;5060731;28;20314;-59
2023/10/18 12:38:32;;;;;;;8.37;3.00;;;18.10;1.00;;;;;;5065607;28;20558;-59
2023/10/18 12:41:05;;;;;;;4.33;2.73;;;18.00;1.00;;;;;;5062847;28;20219;-59
2023/10/18 12:43:39;;;;;;;2.97;2.77;;;18.00;1.00;;;;;;5058005;28;20346;-60
2023/10/18 12:46:07;;;;;;;4.67;2.87;;;18.00;1.00;;;;;;5065514;28;20593;-59
2023/10/18 12:48:36;;;;;;;6.33;2.83;;;18.10;1.00;;;;;;5063328;28;20226;-59
2023/10/18 12:51:11;;;;;;;3.03;2.83;;;18.10;1.00;;;;;;5070339;28;20261;-59
2023/10/18 12:53:41;;;;;;;5.60;2.90;;;18.20;1.00;;;;;;5063823;28;20223;-60
2023/10/18 12:56:31;;;;;;;5.40;2.70;;;18.30;1.00;;;;;;5063330;28;20226;-59
2023/10/18 12:59:22;;;;;;;5.13;3.07;;;18.30;1.00;;;;;;5064760;28;20225;-59
2023/10/18 13:01:51;;;;;;;8.67;3.30;;;18.40;1.00;;;;;;5064044;28;20771;-59
2023/10/18 13:04:20;;;;;;;3.87;2.73;;;18.30;1.00;;;;;;5069581;28;20207;-59
2023/10/18 13:06:47;;;;;;;6.37;2.90;;;18.30;1.00;;;;;;5068085;28;20262;-59
2023/10/18 13:09:18;;;;;;;2.83;2.57;;;18.40;1.00;;;;;;5084495;28;20232;-59
2023/10/18 13:12:00;;;;;;;8.17;3.17;;;18.40;1.00;;;;;;5062810;28;20235;-59
2023/10/18 13:14:32;;;;;;;10.07;3.07;;;18.50;1.00;;;;;;5067337;28;20223;-59
2023/10/18 13:17:05;;;;;;;3.70;2.77;;;18.50;1.00;;;;;;5070594;28;20220;-59
2023/10/18 13:19:34;;;;;;;3.83;2.50;;;18.50;1.00;;;;;;5071115;28;20224;-59
2023/10/18 13:22:15;;;;;;;7.60;2.63;;;18.50;1.00;;;;;;5057298;28;20237;-59
2023/10/18 13:24:44;;;;;;;4.47;2.70;;;18.40;1.00;;;;;;5066673;28;20218;-59
2023/10/18 13:27:15;;;;;;;3.40;2.80;;;18.40;1.00;;;;;;5062791;28;20220;-59
2023/10/18 13:29:53;;;;;;;5.33;2.53;;;18.30;1.00;;;;;;5068663;28;20524;-59
2023/10/18 13:32:22;;;;;;;5.97;3.10;;;18.30;1.00;;;;;;5065832;28;20219;-58
2023/10/18 13:34:50;;;;;;;3.87;2.93;;;18.30;1.00;;;;;;5063659;28;20228;-59
2023/10/18 13:37:23;;;;;;;6.10;3.33;;;18.20;1.00;;;;;;5066014;28;20192;-59
2023/10/18 13:39:53;;;;;;;5.33;2.80;;;18.10;22.90;;;;;;5066135;28;20216;-58